Time;durP1;ratioP1;P1;durP2;ratioP2;P2;SDS_P1;SDS_P2;PMS_P1;PMS_P2;Temp;Humidity;BMP_temperature;BMP_pressure;BME280_temperature;BME280_humidity;BME280_pressure;Samples;Min_cycle;Max_cycle;Signal;HPM_P1;HPM_P2
2023/12/26 00:01:01;;;;;;;19.25;8.32;;;15.70;96.10;;;;;;4590283;19;20003;-82
2023/12/26 00:02:51;;;;;;;17.02;6.45;;;15.70;96.10;;;;;;4591243;19;20014;-82
2023/12/26 00:04:25;;;;;;;17.90;8.48;;;15.60;96.00;;;;;;4591247;19;20018;-82
2023/12/26 00:05:59;;;;;;;16.63;7.10;;;15.60;96.10;;;;;;4590354;19;20027;-82
2023/12/26 00:07:36;;;;;;;19.05;7.38;;;15.60;96.10;;;;;;4591339;19;20128;-83
2023/12/26 00:09:15;;;;;;;16.13;7.05;;;15.60;96.10;;;;;;4590791;19;19999;-82
2023/12/26 00:10:49;;;;;;;16.67;6.88;;;15.60;96.10;;;;;;4590001;19;20006;-82
2023/12/26 00:12:27;;;;;;;18.95;7.78;;;15.50;96.00;;;;;;4593424;19;20002;-82
2023/12/26 00:14:02;;;;;;;15.07;6.72;;;15.50;96.10;;;;;;4595840;19;20006;-82
2023/12/26 00:15:36;;;;;;;21.73;8.05;;;15.50;96.10;;;;;;4595149;19;20421;-82
2023/12/26 00:17:11;;;;;;;15.57;6.53;;;15.50;96.20;;;;;;4595725;19;20002;-82
2023/12/26 00:18:46;;;;;;;14.93;6.60;;;15.50;96.10;;;;;;4595970;19;20029;-82
2023/12/26 00:20:20;;;;;;;16.67;6.93;;;15.40;96.10;;;;;;4594574;19;20021;-82
2023/12/26 00:21:56;;;;;;;18.65;6.47;;;15.40;96.10;;;;;;4594455;19;20027;-82
2023/12/26 00:23:31;;;;;;;14.98;6.28;;;15.40;96.20;;;;;;4594517;19;20003;-82
2023/12/26 00:25:05;;;;;;;12.55;4.82;;;15.40;96.00;;;;;;4595075;19;20442;-82
2023/12/26 00:26:41;;;;;;;13.73;5.05;;;15.40;96.10;;;;;;4595891;19;20445;-82
2023/12/26 00:28:19;;;;;;;12.68;5.30;;;15.40;96.10;;;;;;4594264;19;19998;-82
2023/12/26 00:29:54;;;;;;;13.07;5.05;;;15.40;96.00;;;;;;4594050;19;19995;-82
2023/12/26 00:31:30;;;;;;;14.00;5.30;;;15.40;96.20;;;;;;4595569;19;20436;-82
2023/12/26 00:33:05;;;;;;;10.65;5.13;;;15.40;96.20;;;;;;4595426;19;20002;-82
2023/12/26 00:34:39;;;;;;;13.10;4.95;;;15.40;96.10;;;;;;4594061;19;20003;-82
2023/12/26 00:36:20;;;;;;;12.98;5.07;;;15.30;96.10;;;;;;4592714;19;20014;-82
2023/12/26 00:37:55;;;;;;;12.98;4.75;;;15.30;96.00;;;;;;4594045;19;20022;-82
2023/12/26 00:39:29;;;;;;;11.05;5.22;;;15.30;96.10;;;;;;4593860;19;20021;-82
2023/12/26 00:41:05;;;;;;;12.60;4.53;;;15.30;96.10;;;;;;4595455;19;20460;-82
2023/12/26 00:42:40;;;;;;;15.27;5.55;;;15.30;96.10;;;;;;4593881;19;20003;-82
2023/12/26 00:44:14;;;;;;;11.63;4.57;;;15.20;96.10;;;;;;4594285;19;20033;-82
2023/12/26 00:45:50;;;;;;;13.23;4.82;;;15.20;96.30;;;;;;4593954;19;20011;-82
2023/12/26 00:47:25;;;;;;;10.60;4.55;;;15.20;96.30;;;;;;4595102;19;20003;-82
2023/12/26 00:48:58;;;;;;;12.68;4.80;;;15.20;96.40;;;;;;4593668;19;19999;-82
2023/12/26 00:50:41;;;;;;;12.35;4.30;;;15.10;96.40;;;;;;4595143;19;20082;-82
2023/12/26 00:52:19;;;;;;;13.60;4.97;;;15.10;96.50;;;;;;4593615;19;20011;-82
2023/12/26 00:53:53;;;;;;;11.60;4.85;;;15.10;96.70;;;;;;4594627;19;20035;-82
2023/12/26 00:55:29;;;;;;;14.18;5.63;;;15.10;96.70;;;;;;4594367;19;20020;-82
2023/12/26 00:57:04;;;;;;;13.52;4.75;;;15.10;96.80;;;;;;4594915;19;20477;-82
2023/12/26 00:58:37;;;;;;;11.30;4.75;;;15.10;96.80;;;;;;4593817;19;20441;-82
2023/12/26 01:15:48;;;;;;;;;;;15.10;97.00;;;;;;4594366;19;20010;-82
2023/12/26 01:17:25;;;;;;;15.43;5.72;;;15.10;97.00;;;;;;4594414;19;19938;-82
2023/12/26 01:18:59;;;;;;;10.50;4.10;;;15.10;96.90;;;;;;4593050;19;20034;-82
2023/12/26 01:20:33;;;;;;;12.60;5.20;;;15.10;96.90;;;;;;4594182;19;20367;-82
2023/12/26 01:22:08;;;;;;;9.35;4.25;;;15.10;97.00;;;;;;4594295;19;20009;-82
2023/12/26 01:23:42;;;;;;;14.18;4.90;;;15.10;96.90;;;;;;4594132;19;20010;-82
2023/12/26 01:25:15;;;;;;;12.38;4.28;;;15.10;96.90;;;;;;4593239;19;20007;-82
2023/12/26 01:26:51;;;;;;;13.98;4.55;;;15.10;97.00;;;;;;4593166;19;20444;-82
2023/12/26 01:28:24;;;;;;;12.73;4.55;;;15.10;96.90;;;;;;4593822;19;20002;-82
2023/12/26 01:30:01;;;;;;;11.50;4.50;;;15.10;97.00;;;;;;4591843;19;20442;-82
2023/12/26 01:31:38;;;;;;;13.68;5.32;;;15.10;97.00;;;;;;4592839;19;20334;-82
2023/12/26 01:33:12;;;;;;;13.93;4.97;;;15.10;96.90;;;;;;4593814;19;20062;-82
2023/12/26 01:34:46;;;;;;;13.32;4.45;;;15.10;97.00;;;;;;4593521;19;20010;-82
2023/12/26 01:36:21;;;;;;;11.07;4.57;;;15.10;97.00;;;;;;4592952;19;20013;-82
2023/12/26 01:37:56;;;;;;;11.20;4.68;;;15.00;97.00;;;;;;4593609;19;19999;-82
2023/12/26 01:39:31;;;;;;;14.75;4.82;;;15.10;97.10;;;;;;4594167;19;20005;-82
2023/12/26 01:41:06;;;;;;;11.77;5.28;;;15.10;97.10;;;;;;4592883;19;20010;-82
2023/12/26 01:42:42;;;;;;;12.82;5.30;;;15.10;97.20;;;;;;4593535;19;20073;-82
2023/12/26 01:44:17;;;;;;;11.60;5.10;;;15.00;97.20;;;;;;4592336;19;20023;-82
2023/12/26 01:45:54;;;;;;;12.70;4.93;;;15.10;97.40;;;;;;4593921;19;20033;-82
2023/12/26 01:47:28;;;;;;;13.88;5.68;;;15.10;97.40;;;;;;4593824;19;20039;-82
2023/12/26 01:49:02;;;;;;;13.93;4.65;;;15.00;97.50;;;;;;4593396;19;20015;-82
2023/12/26 01:50:37;;;;;;;11.85;5.07;;;15.00;97.50;;;;;;4594473;19;20421;-82
2023/12/26 01:52:11;;;;;;;11.65;4.60;;;15.10;97.70;;;;;;4593640;19;20015;-82
2023/12/26 01:53:48;;;;;;;11.63;4.38;;;15.10;97.80;;;;;;4593479;19;20014;-82
2023/12/26 01:55:23;;;;;;;12.50;4.25;;;15.10;98.00;;;;;;4591531;19;20010;-82
2023/12/26 01:56:57;;;;;;;10.35;4.45;;;15.10;98.00;;;;;;4593178;19;20006;-82
2023/12/26 01:58:32;;;;;;;11.98;4.82;;;15.00;98.00;;;;;;4593518;19;19998;-82
2023/12/26 02:00:07;;;;;;;12.02;4.57;;;15.10;98.00;;;;;;4592285;19;20007;-82
2023/12/26 02:01:41;;;;;;;9.52;3.80;;;15.10;98.10;;;;;;4593382;19;20283;-82
2023/12/26 02:03:15;;;;;;;10.82;4.00;;;15.10;98.20;;;;;;4593441;19;19999;-82
2023/12/26 02:04:50;;;;;;;12.93;4.88;;;15.10;98.20;;;;;;4592790;19;20049;-82
2023/12/26 02:06:24;;;;;;;13.07;5.05;;;15.00;98.30;;;;;;4593611;19;19999;-83
2023/12/26 02:08:00;;;;;;;10.73;4.72;;;15.10;98.30;;;;;;4593350;19;20009;-82
2023/12/26 02:09:36;;;;;;;11.48;5.05;;;15.10;98.30;;;;;;4593082;19;20007;-82
2023/12/26 02:11:10;;;;;;;12.52;4.88;;;15.00;98.40;;;;;;4593136;19;20049;-82
2023/12/26 02:12:45;;;;;;;11.30;5.03;;;15.10;98.50;;;;;;4591887;19;20002;-81
2023/12/26 02:14:20;;;;;;;9.38;3.97;;;15.10;98.50;;;;;;4592467;19;20019;-82
2023/12/26 02:15:55;;;;;;;12.90;4.68;;;15.10;98.50;;;;;;4593202;19;20013;-82
2023/12/26 02:17:29;;;;;;;10.35;4.05;;;15.10;98.50;;;;;;4592234;19;20006;-82
2023/12/26 02:19:04;;;;;;;10.50;4.47;;;15.10;98.50;;;;;;4592820;19;20006;-82
2023/12/26 02:20:38;;;;;;;10.50;5.22;;;15.10;98.50;;;;;;4593019;19;20010;-82
2023/12/26 02:22:14;;;;;;;10.32;4.30;;;15.10;98.60;;;;;;4593302;19;19999;-82
2023/12/26 02:23:54;;;;;;;10.55;4.60;;;15.10;98.60;;;;;;4593130;19;20032;-82
2023/12/26 02:25:28;;;;;;;12.63;4.57;;;15.10;98.70;;;;;;4592346;19;20342;-82
2023/12/26 02:27:02;;;;;;;9.43;4.07;;;15.10;98.70;;;;;;4592813;19;20011;-82
2023/12/26 02:28:37;;;;;;;8.75;4.25;;;15.10;98.80;;;;;;4591718;19;20378;-82
2023/12/26 02:30:12;;;;;;;11.45;4.60;;;15.10;98.80;;;;;;4591740;19;20003;-82
2023/12/26 02:31:47;;;;;;;10.80;5.35;;;15.10;98.90;;;;;;4591774;19;20010;-82
2023/12/26 02:33:23;;;;;;;11.15;4.43;;;15.10;98.90;;;;;;4591495;19;20380;-82
2023/12/26 02:35:00;;;;;;;8.27;4.43;;;15.10;99.00;;;;;;4589266;19;20383;-82
2023/12/26 02:36:34;;;;;;;12.50;4.85;;;15.10;99.00;;;;;;4592524;19;20014;-82
2023/12/26 02:38:09;;;;;;;11.88;5.00;;;15.10;99.10;;;;;;4591415;19;20525;-82
2023/12/26 02:39:44;;;;;;;9.52;3.90;;;15.10;99.20;;;;;;4592434;19;20003;-82
2023/12/26 02:41:17;;;;;;;14.57;5.03;;;15.10;99.30;;;;;;4591328;19;20015;-82
2023/12/26 02:42:52;;;;;;;13.48;4.45;;;15.10;99.30;;;;;;4592611;19;20302;-82
2023/12/26 02:44:29;;;;;;;10.40;3.95;;;15.10;99.30;;;;;;4592796;19;20029;-82
2023/12/26 02:46:06;;;;;;;10.18;4.00;;;15.10;99.40;;;;;;4591190;19;20342;-82
2023/12/26 02:47:41;;;;;;;10.95;4.55;;;15.10;99.40;;;;;;4592312;19;20108;-82
2023/12/26 02:49:16;;;;;;;11.05;4.30;;;15.10;99.50;;;;;;4592193;19;20022;-82
2023/12/26 02:50:49;;;;;;;13.48;4.32;;;15.10;99.50;;;;;;4591152;19;20441;-82
2023/12/26 02:52:25;;;;;;;9.75;3.80;;;15.10;99.60;;;;;;4592471;19;20027;-82
2023/12/26 02:53:59;;;;;;;10.38;4.60;;;15.20;99.70;;;;;;4592417;19;20010;-83
2023/12/26 02:55:33;;;;;;;9.32;4.72;;;15.10;99.70;;;;;;4591659;19;20335;-83
2023/12/26 02:57:09;;;;;;;8.65;4.13;;;15.10;99.80;;;;;;4592384;19;20007;-83
2023/12/26 02:58:43;;;;;;;9.23;4.55;;;15.10;99.90;;;;;;4592358;19;20309;-83
2023/12/26 03:00:18;;;;;;;8.82;4.30;;;15.20;99.90;;;;;;4592293;19;20009;-83
2023/12/26 03:01:54;;;;;;;7.68;4.00;;;15.20;99.90;;;;;;4592206;19;20010;-82
2023/12/26 03:03:30;;;;;;;10.75;4.63;;;15.10;99.90;;;;;;4592240;19;19999;-82
2023/12/26 03:05:07;;;;;;;9.73;3.67;;;15.10;99.90;;;;;;4591526;19;20074;-83
2023/12/26 03:06:43;;;;;;;11.93;4.82;;;15.20;99.90;;;;;;4590976;19;20077;-82
2023/12/26 03:08:16;;;;;;;8.68;4.00;;;15.10;99.90;;;;;;4591837;19;20002;-82
2023/12/26 03:09:52;;;;;;;6.88;3.90;;;15.20;99.90;;;;;;4591451;19;20006;-83
2023/12/26 03:11:27;;;;;;;10.32;4.68;;;15.20;99.90;;;;;;4592483;19;20287;-82
2023/12/26 03:13:01;;;;;;;9.18;4.35;;;15.10;99.90;;;;;;4592087;19;20002;-83
2023/12/26 03:14:35;;;;;;;8.95;3.85;;;15.20;99.90;;;;;;4591402;19;20031;-82
2023/12/26 03:16:10;;;;;;;7.43;3.75;;;15.10;99.90;;;;;;4590732;19;20007;-83
2023/12/26 03:17:46;;;;;;;9.00;4.38;;;15.20;99.90;;;;;;4591594;19;20015;-83
2023/12/26 03:19:21;;;;;;;10.18;4.55;;;15.20;99.90;;;;;;4591983;19;19998;-83
2023/12/26 03:20:56;;;;;;;8.32;3.92;;;15.20;99.90;;;;;;4592094;19;20065;-83
2023/12/26 03:22:30;;;;;;;10.25;4.20;;;15.20;99.90;;;;;;4591930;19;20002;-83
2023/12/26 03:24:05;;;;;;;9.15;4.28;;;15.20;99.90;;;;;;4591900;19;20006;-84
2023/12/26 03:25:40;;;;;;;9.00;4.95;;;15.20;99.90;;;;;;4589731;19;20013;-83
2023/12/26 03:27:16;;;;;;;8.70;4.63;;;15.20;99.90;;;;;;4591570;19;20009;-83
2023/12/26 03:28:50;;;;;;;8.63;4.05;;;15.20;99.90;;;;;;4590556;19;20097;-83
2023/12/26 03:30:26;;;;;;;10.52;4.45;;;15.20;99.90;;;;;;4591832;19;20444;-84
2023/12/26 03:32:00;;;;;;;8.48;4.47;;;15.20;99.90;;;;;;4591799;19;20006;-84
2023/12/26 03:33:33;;;;;;;9.18;4.45;;;15.20;99.90;;;;;;4590672;19;20433;-84
2023/12/26 03:35:10;;;;;;;8.27;4.82;;;15.20;99.90;;;;;;4590686;19;20025;-84
2023/12/26 03:36:44;;;;;;;7.45;3.83;;;15.20;99.90;;;;;;4591683;19;20010;-84
2023/12/26 03:38:18;;;;;;;7.50;4.25;;;15.20;99.90;;;;;;4591683;19;20022;-84
2023/12/26 03:39:53;;;;;;;8.02;3.78;;;15.20;99.90;;;;;;4590611;19;20013;-84
2023/12/26 03:41:27;;;;;;;8.88;4.47;;;15.20;99.90;;;;;;4591282;19;19999;-84
2023/12/26 03:43:03;;;;;;;9.18;4.07;;;15.30;99.90;;;;;;4591597;19;20002;-84
2023/12/26 03:44:39;;;;;;;8.90;4.65;;;15.20;99.90;;;;;;4589922;19;20011;-84
2023/12/26 03:46:13;;;;;;;9.15;4.72;;;15.30;99.90;;;;;;4593230;19;20006;-84
2023/12/26 03:47:47;;;;;;;9.02;4.80;;;15.20;99.90;;;;;;4596181;19;20002;-84
2023/12/26 03:49:22;;;;;;;10.13;6.63;;;15.20;99.90;;;;;;4595677;19;20025;-83
2023/12/26 03:50:56;;;;;;;12.57;6.35;;;15.30;99.90;;;;;;4596296;19;19999;-83
2023/12/26 03:52:30;;;;;;;11.50;5.68;;;15.20;99.90;;;;;;4596102;19;20006;-83
2023/12/26 03:54:06;;;;;;;10.48;5.70;;;15.30;99.90;;;;;;4596161;19;20013;-82
2023/12/26 03:55:41;;;;;;;12.43;5.30;;;15.20;99.90;;;;;;4594297;19;20065;-82
2023/12/26 03:57:15;;;;;;;10.20;6.10;;;15.20;99.90;;;;;;4596052;19;20025;-82
2023/12/26 03:58:50;;;;;;;11.55;6.13;;;15.20;99.90;;;;;;4596069;19;20014;-82
2023/12/26 04:00:24;;;;;;;17.85;7.65;;;15.30;99.90;;;;;;4595963;19;19998;-82
2023/12/26 04:01:58;;;;;;;12.10;6.85;;;15.30;99.90;;;;;;4595924;19;20327;-82
2023/12/26 04:03:34;;;;;;;12.07;5.72;;;15.20;99.90;;;;;;4596001;19;20287;-82
2023/12/26 04:05:08;;;;;;;12.02;6.72;;;15.30;99.90;;;;;;4594773;19;20003;-82
2023/12/26 04:06:42;;;;;;;12.65;7.40;;;15.30;99.90;;;;;;4594769;19;20066;-82
2023/12/26 04:08:18;;;;;;;11.35;5.97;;;15.30;99.90;;;;;;4594501;19;20295;-82
2023/12/26 04:09:52;;;;;;;10.00;5.55;;;15.20;99.90;;;;;;4594323;19;20330;-82
2023/12/26 04:11:26;;;;;;;12.57;6.38;;;15.30;99.90;;;;;;4596036;19;20005;-82
2023/12/26 04:13:01;;;;;;;11.60;6.13;;;15.30;99.90;;;;;;4594770;19;20429;-83
2023/12/26 04:14:35;;;;;;;9.07;5.03;;;15.30;99.90;;;;;;4594387;19;20006;-82
2023/12/26 04:16:09;;;;;;;9.10;5.28;;;15.20;99.90;;;;;;4595752;19;20013;-82
2023/12/26 04:17:45;;;;;;;10.23;5.43;;;15.30;99.90;;;;;;4596079;19;20012;-82
2023/12/26 04:19:18;;;;;;;11.55;5.57;;;15.30;99.90;;;;;;4595573;19;20010;-82
2023/12/26 04:20:52;;;;;;;9.70;5.68;;;15.30;99.90;;;;;;4595572;19;19995;-82
2023/12/26 04:22:27;;;;;;;10.88;4.78;;;15.30;99.90;;;;;;4595474;19;20030;-82
2023/12/26 04:24:01;;;;;;;7.70;4.38;;;15.30;99.90;;;;;;4594235;19;20438;-82
2023/12/26 04:25:35;;;;;;;8.07;5.10;;;15.30;99.90;;;;;;4593488;19;20026;-82
2023/12/26 04:27:10;;;;;;;9.05;4.90;;;15.30;99.90;;;;;;4595467;19;20003;-82
2023/12/26 04:28:45;;;;;;;6.03;4.13;;;15.30;99.90;;;;;;4595390;19;20006;-83
2023/12/26 04:30:19;;;;;;;6.60;4.18;;;15.30;99.90;;;;;;4593281;19;20002;-83
2023/12/26 04:31:56;;;;;;;8.45;5.00;;;15.30;99.90;;;;;;4595082;19;20017;-83
2023/12/26 04:33:29;;;;;;;7.80;5.03;;;15.30;99.90;;;;;;4595534;19;20322;-83
2023/12/26 04:35:05;;;;;;;7.57;4.63;;;15.30;99.90;;;;;;4594259;19;20002;-83
2023/12/26 04:36:40;;;;;;;8.55;4.20;;;15.30;99.90;;;;;;4595351;19;20018;-83
2023/12/26 04:38:14;;;;;;;7.45;4.40;;;15.30;99.90;;;;;;4595202;19;20062;-83
2023/12/26 04:39:48;;;;;;;6.18;4.43;;;15.30;99.90;;;;;;4595185;19;20002;-83
2023/12/26 04:41:23;;;;;;;5.22;3.83;;;15.20;99.90;;;;;;4595407;19;20027;-83
2023/12/26 04:43:02;;;;;;;7.60;4.20;;;15.20;99.90;;;;;;4595153;19;20014;-83
2023/12/26 04:44:35;;;;;;;5.57;3.75;;;15.20;99.90;;;;;;4594707;19;20003;-83
2023/12/26 04:46:21;;;;;;;6.03;4.00;;;15.20;99.90;;;;;;4595084;19;20009;-83
2023/12/26 04:47:55;;;;;;;6.15;4.40;;;15.20;99.90;;;;;;4593746;19;20006;-83
2023/12/26 04:49:30;;;;;;;6.68;4.07;;;15.20;99.90;;;;;;4594006;19;20298;-83
2023/12/26 04:51:07;;;;;;;7.13;4.25;;;15.20;99.90;;;;;;4593980;19;20011;-82
2023/12/26 04:52:41;;;;;;;7.20;4.38;;;15.20;99.90;;;;;;4593617;19;20011;-82
2023/12/26 04:54:16;;;;;;;7.03;3.78;;;15.20;99.90;;;;;;4594188;19;20011;-87
2023/12/26 04:55:51;;;;;;;5.65;4.30;;;15.20;99.90;;;;;;4595340;19;20073;-84
2023/12/26 04:57:26;;;;;;;7.00;4.47;;;15.20;99.90;;;;;;4592147;19;20009;-85
2023/12/26 04:59:00;;;;;;;5.97;4.25;;;15.20;99.90;;;;;;4594415;19;20010;-85
2023/12/26 05:00:35;;;;;;;5.70;4.20;;;15.20;99.90;;;;;;4595498;19;20090;-86
2023/12/26 05:02:09;;;;;;;6.43;4.68;;;15.30;99.90;;;;;;4594741;19;20002;-86
2023/12/26 05:03:43;;;;;;;5.95;4.05;;;15.30;99.90;;;;;;4594562;19;20015;-87
2023/12/26 05:05:18;;;;;;;6.00;4.38;;;15.30;99.90;;;;;;4592534;19;20034;-85
2023/12/26 05:06:52;;;;;;;6.55;4.35;;;15.40;99.90;;;;;;4594204;19;20015;-86
2023/12/26 05:08:26;;;;;;;7.88;5.20;;;15.40;99.90;;;;;;4594564;19;20070;-86
2023/12/26 05:10:02;;;;;;;5.80;5.03;;;15.40;99.90;;;;;;4593499;19;19999;-86
2023/12/26 05:11:36;;;;;;;6.03;4.43;;;15.50;99.90;;;;;;4594795;19;19998;-86
2023/12/26 05:13:10;;;;;;;6.65;4.45;;;15.50;99.90;;;;;;4593435;19;20422;-85
2023/12/26 05:14:45;;;;;;;5.45;4.68;;;15.50;99.90;;;;;;4593201;19;20011;-86
2023/12/26 05:16:20;;;;;;;6.85;5.15;;;15.50;99.90;;;;;;4594336;19;20014;-87
2023/12/26 05:17:54;;;;;;;7.47;4.95;;;15.60;99.90;;;;;;4594424;19;19998;-86
2023/12/26 05:19:29;;;;;;;5.97;4.30;;;15.60;99.90;;;;;;4594658;19;20442;-86
2023/12/26 05:21:05;;;;;;;5.97;4.13;;;15.60;99.90;;;;;;4593049;19;20007;-87
2023/12/26 05:22:39;;;;;;;5.63;4.97;;;15.60;99.90;;;;;;4594217;19;20002;-87
2023/12/26 05:24:15;;;;;;;6.43;4.30;;;15.60;99.90;;;;;;4594250;19;20306;-86
2023/12/26 05:25:49;;;;;;;5.50;4.20;;;15.60;99.90;;;;;;4593079;19;20078;-85
2023/12/26 05:27:23;;;;;;;7.45;4.93;;;15.60;99.90;;;;;;4593845;19;20318;-84
2023/12/26 05:28:58;;;;;;;6.63;4.70;;;15.60;99.90;;;;;;4594700;19;20022;-85
2023/12/26 05:30:32;;;;;;;5.35;4.13;;;15.60;99.90;;;;;;4594115;19;20005;-85
2023/12/26 05:32:08;;;;;;;6.35;4.85;;;15.60;99.90;;;;;;4594114;19;20006;-84
2023/12/26 05:33:45;;;;;;;6.80;4.60;;;15.50;99.90;;;;;;4594076;19;20521;-84
2023/12/26 05:35:19;;;;;;;5.32;4.53;;;15.60;99.90;;;;;;4593038;19;20011;-86
2023/12/26 05:36:52;;;;;;;5.38;4.40;;;15.50;99.90;;;;;;4594048;19;20075;-87
2023/12/26 05:38:28;;;;;;;5.38;3.85;;;15.50;99.90;;;;;;4593183;19;20011;-87
2023/12/26 05:40:02;;;;;;;5.85;3.60;;;15.50;99.90;;;;;;4593637;19;20003;-88
2023/12/26 05:41:36;;;;;;;4.85;3.80;;;15.50;99.90;;;;;;4594208;19;20425;-87
2023/12/26 05:43:11;;;;;;;5.75;3.80;;;15.50;99.90;;;;;;4593979;19;20290;-87
2023/12/26 05:44:45;;;;;;;5.28;3.80;;;15.50;99.90;;;;;;4591801;19;20007;-87
2023/12/26 05:46:20;;;;;;;5.03;3.92;;;15.50;99.90;;;;;;4592488;19;20021;-87
2023/12/26 05:47:56;;;;;;;5.28;3.63;;;15.50;99.90;;;;;;4592841;19;20013;-89
2023/12/26 05:49:30;;;;;;;5.50;4.00;;;15.50;99.90;;;;;;4592971;19;20319;-87
2023/12/26 05:51:07;;;;;;;4.43;3.30;;;15.40;99.90;;;;;;4593755;19;19999;-87
2023/12/26 05:52:42;;;;;;;4.15;3.20;;;15.40;99.90;;;;;;4594060;19;20422;-87
2023/12/26 05:54:17;;;;;;;5.00;3.33;;;15.50;99.90;;;;;;4593509;19;20002;-87
2023/12/26 05:55:51;;;;;;;4.93;3.83;;;15.40;99.90;;;;;;4593680;19;19999;-88
2023/12/26 05:57:26;;;;;;;4.53;3.53;;;15.40;99.90;;;;;;4593664;19;20006;-87
2023/12/26 05:59:00;;;;;;;4.68;3.60;;;15.40;99.90;;;;;;4593455;19;20323;-86
2023/12/26 06:00:34;;;;;;;5.10;3.65;;;15.40;99.90;;;;;;4592118;19;20313;-86
2023/12/26 06:02:09;;;;;;;5.05;3.45;;;15.40;99.90;;;;;;4592790;19;20010;-88
2023/12/26 06:03:44;;;;;;;4.80;3.33;;;15.40;99.90;;;;;;4593156;19;19999;-88
2023/12/26 06:05:20;;;;;;;4.25;3.53;;;15.40;99.90;;;;;;4592489;19;19998;-86
2023/12/26 06:06:55;;;;;;;4.80;3.90;;;15.30;99.90;;;;;;4592044;19;20007;-86
2023/12/26 06:08:29;;;;;;;4.78;3.72;;;15.40;99.90;;;;;;4593034;19;19998;-87
2023/12/26 06:10:03;;;;;;;5.35;3.58;;;15.40;99.90;;;;;;4590432;19;20025;-85
2023/12/26 06:11:39;;;;;;;4.30;3.10;;;15.40;99.90;;;;;;4593380;19;20007;-84
2023/12/26 06:13:13;;;;;;;4.95;2.85;;;15.40;99.90;;;;;;4593264;19;20003;-87
2023/12/26 06:14:47;;;;;;;4.20;3.13;;;15.40;99.90;;;;;;4590943;19;20015;-86
2023/12/26 06:16:22;;;;;;;3.17;2.70;;;15.40;99.90;;;;;;4592080;19;20010;-87
2023/12/26 06:17:58;;;;;;;4.50;2.90;;;15.30;99.90;;;;;;4593176;19;20019;-83
2023/12/26 06:19:36;;;;;;;4.68;2.83;;;15.40;99.90;;;;;;4591860;19;20007;-86
2023/12/26 06:21:12;;;;;;;3.67;2.60;;;15.30;99.90;;;;;;4592821;19;20031;-85
2023/12/26 06:22:46;;;;;;;3.97;2.90;;;15.40;99.90;;;;;;4593015;19;20010;-85
2023/12/26 06:24:20;;;;;;;4.22;2.72;;;15.30;99.90;;;;;;4592852;19;20007;-85
2023/12/26 06:25:58;;;;;;;4.03;2.42;;;15.40;99.90;;;;;;4593222;19;20327;-85
2023/12/26 06:27:32;;;;;;;2.83;2.20;;;15.40;99.90;;;;;;4592932;19;20442;-85
2023/12/26 06:29:06;;;;;;;3.80;2.90;;;15.40;99.90;;;;;;4591356;19;20437;-84
2023/12/26 06:30:43;;;;;;;3.05;2.75;;;15.40;99.90;;;;;;4592850;19;20030;-84
2023/12/26 06:32:17;;;;;;;3.90;2.20;;;15.40;99.90;;;;;;4591486;19;20006;-84
2023/12/26 06:33:51;;;;;;;2.65;1.98;;;15.40;99.90;;;;;;4592472;19;20373;-84
2023/12/26 06:35:27;;;;;;;3.10;2.20;;;15.40;99.90;;;;;;4590757;19;20010;-83
2023/12/26 06:37:03;;;;;;;2.88;2.40;;;15.50;99.90;;;;;;4591396;19;20003;-84
2023/12/26 06:38:38;;;;;;;3.53;2.50;;;15.50;99.90;;;;;;4590982;19;20010;-84
2023/12/26 06:40:15;;;;;;;3.97;2.50;;;15.50;99.90;;;;;;4592346;19;20023;-83
2023/12/26 06:41:52;;;;;;;3.50;2.90;;;15.50;99.90;;;;;;4591029;19;20008;-80
2023/12/26 06:43:26;;;;;;;4.60;3.63;;;15.20;99.90;;;;;;4590465;19;20010;-86
2023/12/26 06:45:01;;;;;;;4.93;3.60;;;14.70;99.90;;;;;;4589213;19;20038;-82
2023/12/26 06:46:41;;;;;;;4.65;4.00;;;14.30;99.90;;;;;;4589259;19;20006;-85
2023/12/26 06:48:15;;;;;;;5.88;5.32;;;14.10;99.90;;;;;;4590843;19;20002;-85
2023/12/26 06:49:53;;;;;;;7.25;6.65;;;13.90;99.90;;;;;;4590950;19;20074;-83
2023/12/26 06:51:27;;;;;;;5.63;5.13;;;13.70;99.90;;;;;;4590696;19;20114;-88
2023/12/26 06:53:01;;;;;;;3.90;3.50;;;13.70;99.90;;;;;;4591564;19;20002;-83
2023/12/26 06:54:36;;;;;;;5.80;5.30;;;13.60;99.90;;;;;;4591541;19;20007;-79
2023/12/26 06:56:10;;;;;;;5.67;5.17;;;13.60;99.90;;;;;;4590683;19;20418;-80
2023/12/26 06:57:44;;;;;;;8.05;7.32;;;13.50;99.90;;;;;;4591877;19;19999;-80
2023/12/26 06:59:21;;;;;;;9.57;8.67;;;13.40;99.90;;;;;;4591075;19;20010;-80
2023/12/26 07:00:56;;;;;;;8.57;7.77;;;13.30;99.90;;;;;;4591023;19;20002;-80
2023/12/26 07:02:32;;;;;;;7.97;6.93;;;13.30;99.90;;;;;;4592107;19;20007;-80
2023/12/26 07:04:07;;;;;;;7.37;6.00;;;13.30;99.90;;;;;;4592284;19;20014;-83
2023/12/26 07:05:41;;;;;;;7.57;5.93;;;13.20;99.90;;;;;;4591114;19;20003;-84
2023/12/26 07:07:15;;;;;;;5.20;4.70;;;13.20;99.90;;;;;;4591142;19;19999;-80
2023/12/26 07:08:50;;;;;;;6.10;5.50;;;13.10;99.90;;;;;;4592086;19;20086;-81
2023/12/26 07:10:24;;;;;;;7.60;6.90;;;13.10;99.90;;;;;;4589861;19;20005;-79
2023/12/26 07:11:58;;;;;;;5.07;4.57;;;13.10;99.90;;;;;;4591995;19;20010;-77
2023/12/26 07:13:33;;;;;;;4.00;3.60;;;13.10;99.90;;;;;;4592200;19;19999;-79
2023/12/26 07:15:09;;;;;;;4.83;3.50;;;13.10;99.90;;;;;;4589610;19;20469;-77
2023/12/26 07:16:44;;;;;;;4.33;3.60;;;13.00;99.90;;;;;;4590660;19;20330;-77
2023/12/26 07:18:20;;;;;;;5.30;4.20;;;13.00;99.90;;;;;;4590951;19;20473;-80
2023/12/26 07:19:56;;;;;;;5.10;3.80;;;13.00;99.90;;;;;;4591875;19;20007;-77
2023/12/26 07:21:30;;;;;;;5.80;4.30;;;12.90;99.90;;;;;;4591424;19;20422;-78
2023/12/26 07:23:07;;;;;;;11.40;9.20;;;12.90;99.90;;;;;;4590944;19;20432;-80
2023/12/26 07:24:41;;;;;;;6.33;5.50;;;12.80;99.90;;;;;;4591135;19;20014;-76
2023/12/26 07:26:15;;;;;;;5.20;4.07;;;12.80;99.90;;;;;;4591853;19;20002;-75
2023/12/26 07:27:51;;;;;;;5.70;4.13;;;12.80;99.90;;;;;;4592257;19;20074;-76
2023/12/26 07:29:28;;;;;;;4.90;3.67;;;13.10;99.90;;;;;;4591720;19;20418;-76
2023/12/26 07:31:02;;;;;;;4.80;3.30;;;13.30;99.90;;;;;;4592161;19;20002;-76
2023/12/26 07:32:38;;;;;;;5.30;3.30;;;13.50;99.90;;;;;;4592151;19;20006;-75
2023/12/26 07:34:12;;;;;;;5.13;3.37;;;13.70;99.90;;;;;;4591690;19;20426;-75
2023/12/26 07:35:46;;;;;;;6.10;4.23;;;13.80;99.90;;;;;;4591714;19;20026;-77
2023/12/26 07:37:23;;;;;;;6.30;4.17;;;14.00;99.90;;;;;;4590464;19;20027;-77
2023/12/26 07:38:57;;;;;;;5.63;3.95;;;14.10;99.90;;;;;;4591349;19;20002;-77
2023/12/26 07:40:33;;;;;;;6.38;4.30;;;14.20;99.90;;;;;;4591700;19;20069;-76
2023/12/26 07:42:09;;;;;;;6.10;4.13;;;14.30;99.90;;;;;;4591726;19;20006;-76
2023/12/26 07:43:43;;;;;;;6.18;4.80;;;14.40;99.90;;;;;;4591795;19;20003;-76
2023/12/26 07:45:22;;;;;;;5.68;4.07;;;14.50;99.90;;;;;;4590888;19;20020;-79
2023/12/26 07:46:58;;;;;;;5.28;3.85;;;14.60;99.90;;;;;;4591621;19;20025;-80
2023/12/26 07:48:33;;;;;;;7.60;5.10;;;14.70;99.90;;;;;;4590441;19;19999;-80
2023/12/26 07:50:07;;;;;;;29.67;19.48;;;14.70;99.90;;;;;;4589265;19;20010;-81
2023/12/26 07:51:42;;;;;;;23.50;15.98;;;14.70;99.90;;;;;;4591176;19;20026;-78
2023/12/26 07:53:16;;;;;;;19.08;13.10;;;14.80;99.90;;;;;;4590150;19;20326;-79
2023/12/26 07:54:50;;;;;;;13.80;10.57;;;14.80;99.90;;;;;;4589459;19;20014;-81
2023/12/26 07:56:25;;;;;;;10.60;8.27;;;14.90;99.90;;;;;;4591112;19;20011;-78
2023/12/26 07:58:00;;;;;;;9.07;7.35;;;14.90;99.90;;;;;;4591318;19;20070;-80
2023/12/26 07:59:34;;;;;;;7.40;5.53;;;14.90;99.90;;;;;;4589919;19;20006;-79
2023/12/26 08:01:09;;;;;;;6.15;5.28;;;15.00;99.90;;;;;;4589890;19;20034;-80
2023/12/26 08:02:47;;;;;;;6.50;5.82;;;15.00;99.90;;;;;;4590189;19;20009;-78
2023/12/26 08:04:22;;;;;;;8.23;4.80;;;15.00;99.90;;;;;;4590688;19;20019;-74
2023/12/26 08:05:57;;;;;;;6.95;5.47;;;15.00;99.90;;;;;;4591537;19;20010;-75
2023/12/26 08:07:31;;;;;;;13.13;11.80;;;15.10;99.90;;;;;;4591258;19;20002;-75
2023/12/26 08:09:05;;;;;;;17.48;15.98;;;15.10;99.90;;;;;;4591158;19;20018;-77
2023/12/26 08:10:44;;;;;;;10.95;9.75;;;15.10;99.90;;;;;;4589842;19;20117;-77
2023/12/26 08:12:18;;;;;;;8.63;7.63;;;15.10;99.90;;;;;;4591166;19;20034;-81
2023/12/26 08:13:53;;;;;;;8.60;7.45;;;15.20;99.90;;;;;;4591044;19;19999;-76
2023/12/26 08:15:30;;;;;;;8.13;7.28;;;15.20;99.90;;;;;;4589681;19;20015;-76
2023/12/26 08:17:04;;;;;;;8.05;5.68;;;15.20;99.90;;;;;;4591308;19;20005;-77
2023/12/26 08:18:39;;;;;;;8.90;6.22;;;15.20;99.90;;;;;;4591364;19;20282;-77
2023/12/26 08:20:14;;;;;;;7.25;5.72;;;15.20;99.90;;;;;;4591035;19;20007;-75
2023/12/26 08:21:48;;;;;;;6.53;5.15;;;15.20;99.90;;;;;;4590943;19;20006;-80
2023/12/26 08:23:22;;;;;;;6.63;4.90;;;15.20;99.90;;;;;;4589586;19;20022;-81
2023/12/26 08:24:57;;;;;;;6.70;5.28;;;15.30;99.90;;;;;;4589143;19;20421;-77
2023/12/26 08:26:32;;;;;;;7.50;5.15;;;15.20;99.90;;;;;;4590534;19;20003;-77
2023/12/26 08:28:06;;;;;;;9.05;5.85;;;15.20;99.90;;;;;;4591095;19;19998;-79